createdAt,value
2023-04-09T00:00:05.674Z,100278.34
2023-04-09T00:01:11.025Z,100281.02
2023-04-09T00:02:15.664Z,100278.34
2023-04-09T00:03:18.281Z,100285.25
2023-04-09T00:04:23.920Z,100282.06
2023-04-09T00:05:26.421Z,100287.33
2023-04-09T00:06:29.313Z,100286.27
2023-04-09T00:07:31.621Z,100287.69
2023-04-09T00:08:33.769Z,100287.59
2023-04-09T00:09:36.114Z,100286.54
2023-04-09T00:10:38.644Z,100282.94
2023-04-09T00:11:41.331Z,100294.18
2023-04-09T00:12:44.136Z,100286.12
2023-04-09T00:13:49.041Z,100283.92
2023-04-09T00:14:51.545Z,100287.70
2023-04-09T00:15:53.888Z,100283.39
2023-04-09T00:16:56.137Z,100283.52
2023-04-09T00:17:59.036Z,100281.02
2023-04-09T00:19:02.086Z,100287.82
2023-04-09T00:20:05.515Z,100286.80
2023-04-09T00:21:08.467Z,100278.91
2023-04-09T00:22:12.605Z,100280.55
2023-04-09T00:23:15.395Z,100277.14
2023-04-09T00:24:18.011Z,100282.19
2023-04-09T00:25:21.496Z,100279.59
2023-04-09T00:26:25.941Z,100281.75
2023-04-09T00:27:28.410Z,100281.75
2023-04-09T00:28:30.748Z,100282.40
2023-04-09T00:29:32.985Z,100283.33
2023-04-09T00:30:35.532Z,100280.95
2023-04-09T00:31:37.910Z,100277.98
2023-04-09T00:32:40.439Z,100275.59
2023-04-09T00:33:43.361Z,100276.68
2023-04-09T00:34:45.766Z,100273.12
2023-04-09T00:35:47.955Z,100274.98
2023-04-09T00:36:50.279Z,100270.73
2023-04-09T00:37:52.724Z,100271.69
2023-04-09T00:38:55.177Z,100277.64
2023-04-09T00:39:57.903Z,100285.25
2023-04-09T00:41:00.474Z,100276.62
2023-04-09T00:42:03.144Z,100276.62
2023-04-09T00:43:06.178Z,100275.81
2023-04-09T00:44:08.319Z,100276.15
2023-04-09T00:45:11.114Z,100278.69
2023-04-09T00:46:15.575Z,100277.64
2023-04-09T00:47:18.365Z,100270.67
2023-04-09T00:48:21.065Z,100276.68
2023-04-09T00:49:26.385Z,100271.51
2023-04-09T00:50:29.299Z,100282.62
2023-04-09T00:51:32.601Z,100274.70
2023-04-09T00:52:36.214Z,100281.39
2023-04-09T00:53:38.647Z,100280.42
2023-04-09T00:54:42.080Z,100280.17
2023-04-09T00:55:45.472Z,100281.75
2023-04-09T00:56:47.963Z,100280.63
2023-04-09T00:57:50.215Z,100278.03
2023-04-09T00:58:53.704Z,100276.33
2023-04-09T00:59:56.322Z,100275.52
2023-04-09T01:00:58.719Z,100279.83
2023-04-09T01:02:01.120Z,100278.34
2023-04-09T01:03:06.154Z,100280.17
2023-04-09T01:04:09.014Z,100274.17
2023-04-09T01:05:12.981Z,100273.27
2023-04-09T01:06:26.535Z,100274.84
2023-04-09T01:07:37.872Z,100279.95
2023-04-09T01:10:33.667Z,100274.91
2023-04-09T01:13:02.679Z,100281.41
2023-04-09T01:14:18.701Z,100284.51
2023-04-09T01:15:28.334Z,100287.05
2023-04-09T01:16:33.899Z,100286.14
2023-04-09T01:17:45.898Z,100281.32
2023-04-09T01:19:04.219Z,100283.98
2023-04-09T01:20:27.758Z,100282.03
2023-04-09T01:21:33.362Z,100286.30
2023-04-09T01:23:12.807Z,100281.10
2023-04-09T01:24:24.793Z,100283.55
2023-04-09T01:25:52.101Z,100280.79
2023-04-09T01:27:07.824Z,100274.98
2023-04-09T01:28:33.246Z,100282.06
2023-04-09T01:29:48.203Z,100280.27
2023-04-09T01:30:54.790Z,100277.73
2023-04-09T01:31:59.017Z,100275.06
2023-04-09T01:33:04.513Z,100275.91
2023-04-09T01:34:09.345Z,100275.19
2023-04-09T01:35:13.794Z,100279.09
2023-04-09T01:36:17.042Z,100279.90
2023-04-09T01:37:20.645Z,100279.00
2023-04-09T01:38:24.987Z,100278.26
2023-04-09T01:39:28.188Z,100278.26
2023-04-09T01:40:31.067Z,100274.23
2023-04-09T01:41:35.003Z,100284.50
2023-04-09T01:42:38.384Z,100281.81
2023-04-09T01:43:42.653Z,100285.99
2023-04-09T01:44:46.226Z,100284.30
2023-04-09T01:45:49.561Z,100285.03
2023-04-09T01:46:53.895Z,100287.48
2023-04-09T01:47:56.808Z,100291.63
2023-04-09T01:49:00.002Z,100286.59
2023-04-09T01:50:03.039Z,100290.89
2023-04-09T01:51:05.692Z,100296.70
2023-04-09T01:52:09.332Z,100297.57
2023-04-09T01:53:12.391Z,100297.66
2023-04-09T01:54:16.495Z,100298.09
2023-04-09T01:55:18.936Z,100291.83
2023-04-09T01:56:21.510Z,100288.42
2023-04-09T01:57:25.240Z,100290.94
2023-04-09T01:58:27.841Z,100295.09
2023-04-09T01:59:30.569Z,100295.02
2023-04-09T02:00:39.195Z,100300.97
2023-04-09T02:01:47.587Z,100287.44
2023-04-09T02:03:08.157Z,100289.29
2023-04-09T02:04:14.250Z,100295.47
2023-04-09T02:05:21.906Z,100291.98
2023-04-09T02:06:31.270Z,100291.14
2023-04-09T02:07:46.495Z,100293.63
2023-04-09T02:08:51.875Z,100297.86
2023-04-09T02:09:55.531Z,100290.72
2023-04-09T02:11:00.224Z,100295.02
2023-04-09T02:12:05.417Z,100292.36
2023-04-09T02:13:11.580Z,100291.41
2023-04-09T02:14:15.665Z,100294.16
2023-04-09T02:15:22.116Z,100295.86
2023-04-09T02:16:27.373Z,100294.22
2023-04-09T02:17:29.783Z,100292.52
2023-04-09T02:18:33.688Z,100299.71
2023-04-09T02:19:44.917Z,100294.70
2023-04-09T02:20:48.988Z,100301.69
2023-04-09T02:21:51.318Z,100304.42
2023-04-09T02:22:53.473Z,100303.62
2023-04-09T02:23:56.389Z,100299.23
2023-04-09T02:24:59.855Z,100311.33
2023-04-09T02:26:02.180Z,100300.53
2023-04-09T02:27:05.705Z,100307.72
2023-04-09T02:28:07.974Z,100303.41
2023-04-09T02:29:10.117Z,100304.22
2023-04-09T02:30:12.571Z,100305.03
2023-04-09T02:31:15.015Z,100309.22
2023-04-09T02:32:18.039Z,100298.80
2023-04-09T02:33:20.273Z,100298.83
2023-04-09T02:34:23.421Z,100301.42
2023-04-09T02:35:26.064Z,100306.94
2023-04-09T02:36:28.414Z,100314.31
2023-04-09T02:37:30.767Z,100314.31
2023-04-09T02:38:33.202Z,100301.34
2023-04-09T02:39:35.593Z,100304.67
2023-04-09T02:40:37.940Z,100301.97
2023-04-09T02:41:40.279Z,100303.92
2023-04-09T02:42:42.422Z,100297.11
2023-04-09T02:43:44.703Z,100305.03
2023-04-09T02:44:46.946Z,100303.50
2023-04-09T02:45:50.807Z,100300.98
2023-04-09T02:46:53.496Z,100300.20
2023-04-09T02:47:56.251Z,100298.70
2023-04-09T02:48:59.027Z,100304.14
2023-04-09T02:50:01.553Z,100306.29
2023-04-09T02:51:05.738Z,100302.28
2023-04-09T02:52:10.745Z,100302.47
2023-04-09T02:53:13.123Z,100298.33
2023-04-09T02:54:15.550Z,100299.40
2023-04-09T02:55:18.858Z,100297.69
2023-04-09T02:56:21.171Z,100293.29
2023-04-09T02:57:24.014Z,100300.18
2023-04-09T02:58:26.134Z,100298.36
2023-04-09T02:59:28.593Z,100296.70
2023-04-09T03:00:31.823Z,100299.06
2023-04-09T03:01:34.390Z,100289.45
2023-04-09T03:02:36.986Z,100302.42
2023-04-09T03:03:41.421Z,100303.42
2023-04-09T03:04:43.708Z,100293.73
2023-04-09T03:05:45.961Z,100297.69
2023-04-09T03:06:48.224Z,100299.14
2023-04-09T03:07:50.873Z,100298.81
2023-04-09T03:08:53.284Z,100297.69
2023-04-09T03:09:55.831Z,100305.28
2023-04-09T03:10:59.008Z,100308.25
2023-04-09T03:12:01.456Z,100300.03
2023-04-09T03:13:03.899Z,100308.70
2023-04-09T03:14:06.250Z,100304.53
2023-04-09T03:15:10.276Z,100297.98
2023-04-09T03:16:12.598Z,100304.94
2023-04-09T03:17:14.778Z,100297.98
2023-04-09T03:18:17.027Z,100304.48
2023-04-09T03:19:19.546Z,100304.48
2023-04-09T03:20:21.783Z,100303.81
2023-04-09T03:21:24.095Z,100298.48
2023-04-09T03:22:27.380Z,100304.69
2023-04-09T03:23:31.513Z,100298.84
2023-04-09T03:24:34.652Z,100303.98
2023-04-09T03:25:39.115Z,100305.92
2023-04-09T03:26:43.400Z,100300.89
2023-04-09T03:27:47.716Z,100303.66
2023-04-09T03:28:52.162Z,100306.09
2023-04-09T03:29:58.348Z,100308.78
2023-04-09T03:31:02.649Z,100298.41
2023-04-09T03:32:07.023Z,100299.25
2023-04-09T03:33:09.830Z,100300.89
2023-04-09T03:34:14.181Z,100304.53
2023-04-09T03:35:16.683Z,100303.43
2023-04-09T03:36:20.126Z,100303.27
2023-04-09T03:37:30.228Z,100303.09
2023-04-09T03:38:32.686Z,100306.40
2023-04-09T03:39:36.550Z,100304.97
2023-04-09T03:40:38.889Z,100305.85
2023-04-09T03:41:41.834Z,100307.63
2023-04-09T03:42:46.023Z,100310.15
2023-04-09T03:43:49.329Z,100306.55
2023-04-09T03:44:55.081Z,100313.56
2023-04-09T03:46:16.052Z,100304.09
2023-04-09T03:47:21.238Z,100299.20
2023-04-09T03:48:23.661Z,100304.70
2023-04-09T03:49:26.446Z,100305.37
2023-04-09T03:50:30.403Z,100303.77
2023-04-09T03:51:32.543Z,100303.83
2023-04-09T03:52:35.195Z,100309.34
2023-04-09T03:53:42.396Z,100309.34
2023-04-09T03:54:44.783Z,100311.11
2023-04-09T03:55:49.079Z,100306.24
2023-04-09T03:56:53.979Z,100305.31
2023-04-09T03:57:57.906Z,100299.20
2023-04-09T03:59:02.437Z,100307.23
2023-04-09T04:00:07.608Z,100307.23
2023-04-09T04:01:11.795Z,100312.31
2023-04-09T04:02:16.083Z,100314.90
2023-04-09T04:03:20.638Z,100313.91
2023-04-09T04:04:25.481Z,100313.97
2023-04-09T04:05:29.795Z,100315.92
2023-04-09T04:06:34.990Z,100311.53
2023-04-09T04:07:43.299Z,100315.67
2023-04-09T04:08:47.600Z,100304.31
2023-04-09T04:09:51.451Z,100314.52
2023-04-09T04:10:54.358Z,100316.06
2023-04-09T04:11:58.244Z,100306.52
2023-04-09T04:13:02.731Z,100320.25
2023-04-09T04:14:07.084Z,100317.61
2023-04-09T04:15:09.587Z,100319.48
2023-04-09T04:16:19.768Z,100317.02
2023-04-09T04:17:22.058Z,100315.97
2023-04-09T04:18:24.745Z,100317.77
2023-04-09T04:19:28.794Z,100309.23
2023-04-09T04:20:33.083Z,100318.72
2023-04-09T04:21:37.249Z,100312.59
2023-04-09T04:22:41.126Z,100322.13
2023-04-09T04:23:43.820Z,100319.38
2023-04-09T04:24:57.288Z,100320.10
2023-04-09T04:26:00.471Z,100318.22
2023-04-09T04:27:07.945Z,100320.76
2023-04-09T04:28:11.476Z,100321.45
2023-04-09T04:29:16.459Z,100324.70
2023-04-09T04:30:24.640Z,100321.92
2023-04-09T04:31:28.839Z,100325.34
2023-04-09T04:32:33.391Z,100327.05
2023-04-09T04:33:39.584Z,100326.09
2023-04-09T04:34:43.694Z,100331.13
2023-04-09T04:35:47.773Z,100328.34
2023-04-09T04:37:03.875Z,100325.63
2023-04-09T04:38:07.652Z,100326.23
2023-04-09T04:39:11.640Z,100328.75
2023-04-09T04:40:18.860Z,100332.36
2023-04-09T04:41:22.072Z,100334.12
2023-04-09T04:42:26.285Z,100328.11
2023-04-09T04:43:29.125Z,100331.64
2023-04-09T04:44:33.254Z,100335.83
2023-04-09T04:45:37.726Z,100336.35
2023-04-09T04:46:41.942Z,100324.02
2023-04-09T04:47:44.313Z,100333.95
2023-04-09T04:48:47.605Z,100333.52
2023-04-09T04:49:50.108Z,100333.24
2023-04-09T04:51:00.266Z,100334.02
2023-04-09T04:52:05.917Z,100336.40
2023-04-09T04:53:08.728Z,100330.20
2023-04-09T04:54:14.079Z,100334.41
2023-04-09T04:55:18.313Z,100333.47
2023-04-09T04:56:20.793Z,100331.63
2023-04-09T04:57:25.100Z,100334.91
2023-04-09T04:58:29.893Z,100340.60
2023-04-09T04:59:39.217Z,100343.80
2023-04-09T05:00:42.581Z,100340.80
2023-04-09T05:01:45.584Z,100336.61
2023-04-09T05:02:48.611Z,100340.80
2023-04-09T05:03:53.158Z,100340.45
2023-04-09T05:05:07.256Z,100338.70
2023-04-09T05:06:11.865Z,100344.70
2023-04-09T05:07:16.240Z,100343.60
2023-04-09T05:08:20.766Z,100344.50
2023-04-09T05:09:25.560Z,100346.41
2023-04-09T05:10:30.864Z,100347.62
2023-04-09T05:11:35.938Z,100347.70
2023-04-09T05:12:40.851Z,100346.75
2023-04-09T05:13:43.636Z,100349.55
2023-04-09T05:14:47.421Z,100350.30
2023-04-09T05:15:50.309Z,100352.81
2023-04-09T05:16:54.453Z,100352.50
2023-04-09T05:17:59.085Z,100354.14
2023-04-09T05:19:02.860Z,100354.80
2023-04-09T05:20:06.534Z,100352.81
2023-04-09T05:21:10.830Z,100355.14
2023-04-09T05:22:14.923Z,100365.39
2023-04-09T05:23:17.073Z,100353.91
2023-04-09T05:24:21.222Z,100351.58
2023-04-09T05:25:23.394Z,100350.69
2023-04-09T05:26:26.839Z,100347.06
2023-04-09T05:27:31.001Z,100349.36
2023-04-09T05:28:35.293Z,100362.16
2023-04-09T05:29:39.519Z,100353.20
2023-04-09T05:30:47.381Z,100354.66
2023-04-09T05:31:50.410Z,100354.69
2023-04-09T05:33:01.124Z,100356.52
2023-04-09T05:34:04.439Z,100355.44
2023-04-09T05:35:09.461Z,100359.86
2023-04-09T05:36:18.107Z,100359.86
2023-04-09T05:37:21.371Z,100352.65
2023-04-09T05:38:27.091Z,100358.19
2023-04-09T05:39:32.487Z,100350.27
2023-04-09T05:40:35.877Z,100357.75
2023-04-09T05:41:40.265Z,100364.36
2023-04-09T05:43:01.624Z,100357.13
2023-04-09T05:44:15.160Z,100355.44
2023-04-09T05:45:18.571Z,100356.91
2023-04-09T05:46:25.844Z,100358.52
2023-04-09T05:47:29.638Z,100366.11
2023-04-09T05:48:46.173Z,100355.56
2023-04-09T05:49:48.406Z,100360.00
2023-04-09T05:50:55.539Z,100356.69
2023-04-09T05:51:59.242Z,100358.62
2023-04-09T05:53:03.521Z,100360.41
2023-04-09T05:54:08.740Z,100360.61
2023-04-09T05:55:12.691Z,100360.61
2023-04-09T05:56:21.416Z,100359.55
2023-04-09T05:57:26.192Z,100367.13
2023-04-09T05:58:30.713Z,100369.50
2023-04-09T05:59:33.714Z,100360.66
2023-04-09T06:00:37.261Z,100367.23
2023-04-09T06:01:39.455Z,100366.61
2023-04-09T06:02:41.731Z,100363.83
2023-04-09T06:03:44.284Z,100363.59
2023-04-09T06:04:48.719Z,100377.92
2023-04-09T06:05:51.521Z,100367.89
2023-04-09T06:06:55.099Z,100365.14
2023-04-09T06:07:57.557Z,100367.51
2023-04-09T06:09:00.444Z,100371.57
2023-04-09T06:10:02.861Z,100375.52
2023-04-09T06:11:11.434Z,100371.39
2023-04-09T06:12:13.691Z,100375.70
2023-04-09T06:13:17.565Z,100371.14
2023-04-09T06:14:20.434Z,100375.38
2023-04-09T06:15:22.849Z,100374.73
2023-04-09T06:16:25.750Z,100377.33
2023-04-09T06:17:29.238Z,100379.83
2023-04-09T06:18:32.643Z,100374.41
2023-04-09T06:19:35.959Z,100381.94
2023-04-09T06:20:38.731Z,100378.00
2023-04-09T06:21:40.777Z,100378.09
2023-04-09T06:22:42.940Z,100379.23
2023-04-09T06:23:45.631Z,100378.10
2023-04-09T06:24:47.968Z,100378.05
2023-04-09T06:25:50.378Z,100378.05
2023-04-09T06:26:53.127Z,100380.19
2023-04-09T06:27:56.109Z,100377.53
2023-04-09T06:28:58.483Z,100378.89
2023-04-09T06:30:00.517Z,100370.80
2023-04-09T06:31:03.291Z,100379.69
2023-04-09T06:32:06.127Z,100376.29
2023-04-09T06:33:08.379Z,100376.14
2023-04-09T06:34:12.140Z,100381.95
2023-04-09T06:35:15.247Z,100374.30
2023-04-09T06:36:17.758Z,100376.37
2023-04-09T06:37:20.201Z,100377.80
2023-04-09T06:38:22.580Z,100377.80
2023-04-09T06:39:26.272Z,100386.02
2023-04-09T06:40:28.507Z,100388.63
2023-04-09T06:41:32.412Z,100383.02
2023-04-09T06:42:34.786Z,100383.02
2023-04-09T06:43:54.471Z,100378.59
2023-04-09T06:44:56.888Z,100375.85
2023-04-09T06:45:59.134Z,100386.45
2023-04-09T06:47:01.693Z,100376.80
2023-04-09T06:48:04.672Z,100381.59
2023-04-09T06:49:08.856Z,100377.95
2023-04-09T06:50:11.536Z,100384.88
2023-04-09T06:51:14.482Z,100385.30
2023-04-09T06:52:16.703Z,100378.59
2023-04-09T06:53:19.514Z,100384.99
2023-04-09T06:54:21.890Z,100379.65
2023-04-09T06:55:26.276Z,100380.95
2023-04-09T06:56:28.723Z,100381.15
2023-04-09T06:57:31.176Z,100380.16
2023-04-09T06:58:34.506Z,100379.21
2023-04-09T06:59:36.906Z,100388.39
2023-04-09T07:00:39.268Z,100382.03
2023-04-09T07:01:42.077Z,100379.70
2023-04-09T07:02:44.800Z,100378.07
2023-04-09T07:03:47.545Z,100385.35
2023-04-09T07:04:51.291Z,100379.73
2023-04-09T07:05:54.364Z,100390.41
2023-04-09T07:06:58.478Z,100389.81
2023-04-09T07:08:00.973Z,100385.11
2023-04-09T07:09:03.456Z,100387.56
2023-04-09T07:10:07.051Z,100388.27
2023-04-09T07:11:09.901Z,100389.39
2023-04-09T07:12:12.179Z,100391.36
2023-04-09T07:13:14.632Z,100390.80
2023-04-09T07:14:16.881Z,100388.98
2023-04-09T07:15:20.173Z,100389.28
2023-04-09T07:16:23.181Z,100389.83
2023-04-09T07:17:25.478Z,100387.84
2023-04-09T07:18:27.698Z,100389.20
2023-04-09T07:19:30.564Z,100389.61
2023-04-09T07:20:33.757Z,100388.70
2023-04-09T07:21:35.906Z,100389.83
2023-04-09T07:22:38.942Z,100382.11
2023-04-09T07:23:42.348Z,100390.41
2023-04-09T07:24:45.430Z,100389.13
2023-04-09T07:25:49.838Z,100385.34
2023-04-09T07:26:52.777Z,100388.98
2023-04-09T07:27:55.594Z,100383.64
2023-04-09T07:29:01.204Z,100388.05
2023-04-09T07:30:05.250Z,100389.14
2023-04-09T07:31:07.463Z,100386.74
2023-04-09T07:32:10.659Z,100382.89
2023-04-09T07:33:13.710Z,100381.53
2023-04-09T07:34:16.880Z,100389.61
2023-04-09T07:35:19.806Z,100381.14
2023-04-09T07:36:22.802Z,100377.84
2023-04-09T07:37:25.462Z,100381.28
2023-04-09T07:38:30.777Z,100387.44
2023-04-09T07:39:34.162Z,100385.22
2023-04-09T07:40:36.816Z,100374.05
2023-04-09T07:41:39.111Z,100374.05
2023-04-09T07:42:43.207Z,100379.67
2023-04-09T07:43:45.713Z,100380.81
2023-04-09T07:44:48.076Z,100379.67
2023-04-09T07:47:03.230Z,100376.75
2023-04-09T07:48:08.752Z,100380.67
2023-04-09T07:49:11.312Z,100380.12
2023-04-09T07:50:13.971Z,100377.28
2023-04-09T07:51:16.376Z,100370.13
2023-04-09T07:52:20.609Z,100369.06
2023-04-09T07:53:23.134Z,100373.52
2023-04-09T07:54:25.871Z,100369.77
2023-04-09T07:55:29.315Z,100374.69
2023-04-09T07:56:32.186Z,100373.59
2023-04-09T07:57:35.129Z,100376.20
2023-04-09T07:58:40.137Z,100380.98
2023-04-09T07:59:44.878Z,100377.19
2023-04-09T08:00:49.150Z,100371.28
2023-04-09T08:01:51.673Z,100372.12
2023-04-09T08:02:56.926Z,100377.82
2023-04-09T08:03:59.436Z,100373.88
2023-04-09T08:05:02.281Z,100373.05
2023-04-09T08:06:05.351Z,100370.20
2023-04-09T08:07:08.390Z,100362.80
2023-04-09T08:08:11.374Z,100367.86
2023-04-09T08:09:14.386Z,100374.11
2023-04-09T08:10:17.742Z,100375.11
2023-04-09T08:11:22.845Z,100370.56
2023-04-09T08:12:26.017Z,100378.34
2023-04-09T08:13:28.488Z,100375.63
2023-04-09T08:14:31.338Z,100372.41
2023-04-09T08:15:33.483Z,100379.75
2023-04-09T08:16:37.106Z,100373.42
2023-04-09T08:17:39.935Z,100371.58
2023-04-09T08:18:43.252Z,100371.44
2023-04-09T08:19:46.184Z,100371.90
2023-04-09T08:20:48.948Z,100365.97
2023-04-09T08:21:52.337Z,100369.45
2023-04-09T08:22:55.001Z,100369.59
2023-04-09T08:23:59.005Z,100370.59
2023-04-09T08:25:02.911Z,100369.59
2023-04-09T08:26:05.504Z,100370.05
2023-04-09T08:27:08.145Z,100362.89
2023-04-09T08:28:10.318Z,100365.59
2023-04-09T08:29:14.437Z,100367.44
2023-04-09T08:30:18.843Z,100371.66
2023-04-09T08:31:21.594Z,100364.41
2023-04-09T08:32:24.051Z,100368.19
2023-04-09T08:33:26.526Z,100370.56
2023-04-09T08:34:28.999Z,100364.17
2023-04-09T08:35:31.463Z,100369.23
2023-04-09T08:36:35.274Z,100365.26
2023-04-09T08:37:37.762Z,100359.52
2023-04-09T08:38:42.252Z,100371.20
2023-04-09T08:39:45.287Z,100364.03
2023-04-09T08:40:48.302Z,100365.73
2023-04-09T08:41:52.293Z,100360.89
2023-04-09T08:42:58.948Z,100368.02
2023-04-09T08:44:02.599Z,100355.16
2023-04-09T08:45:06.456Z,100364.56
2023-04-09T08:46:10.404Z,100365.92
2023-04-09T08:47:14.650Z,100363.11
2023-04-09T08:48:19.508Z,100365.29
2023-04-09T08:49:21.975Z,100361.39
2023-04-09T08:50:24.966Z,100365.13
2023-04-09T08:51:28.770Z,100363.78
2023-04-09T08:52:35.160Z,100363.78
2023-04-09T08:53:38.713Z,100367.84
2023-04-09T08:54:42.463Z,100369.89
2023-04-09T08:55:48.209Z,100365.73
2023-04-09T08:56:51.633Z,100356.52
2023-04-09T08:57:53.920Z,100366.84
2023-04-09T08:58:56.479Z,100362.87
2023-04-09T08:59:58.697Z,100363.61
2023-04-09T09:01:01.663Z,100357.69
2023-04-09T09:02:11.235Z,100359.14
2023-04-09T09:03:16.219Z,100363.80
2023-04-09T09:04:18.540Z,100364.47
2023-04-09T09:05:24.678Z,100358.05
2023-04-09T09:06:30.665Z,100358.05
2023-04-09T09:07:34.437Z,100365.30
2023-04-09T09:08:36.818Z,100359.91
2023-04-09T09:09:54.602Z,100368.35
2023-04-09T09:10:57.264Z,100368.43
2023-04-09T09:12:02.024Z,100363.25
2023-04-09T09:13:28.190Z,100355.03
2023-04-09T09:14:32.652Z,100362.90
2023-04-09T09:15:34.994Z,100360.72
2023-04-09T09:16:43.983Z,100367.56
2023-04-09T09:17:55.700Z,100367.02
2023-04-09T09:18:58.399Z,100357.64
2023-04-09T09:20:04.477Z,100357.95
2023-04-09T09:21:15.280Z,100369.97
2023-04-09T09:22:18.699Z,100354.23
2023-04-09T09:24:50.446Z,100352.29
2023-04-09T09:25:52.890Z,100362.73
2023-04-09T09:26:56.716Z,100352.59
2023-04-09T09:28:05.759Z,100357.64
2023-04-09T09:29:10.651Z,100353.81
2023-04-09T09:30:22.060Z,100360.83
2023-04-09T09:31:25.206Z,100352.89
2023-04-09T09:32:28.606Z,100358.05
2023-04-09T09:33:33.175Z,100360.67
2023-04-09T09:34:36.031Z,100360.85
2023-04-09T09:35:53.556Z,100349.30
2023-04-09T09:36:55.890Z,100342.94
2023-04-09T09:38:01.118Z,100353.34
2023-04-09T09:39:04.746Z,100352.97
2023-04-09T09:40:09.026Z,100351.93
2023-04-09T09:41:18.081Z,100349.13
2023-04-09T09:42:20.512Z,100345.48
2023-04-09T09:43:23.400Z,100350.73
2023-04-09T09:44:32.801Z,100350.17
2023-04-09T09:45:37.654Z,100351.66
2023-04-09T09:46:42.037Z,100347.49
2023-04-09T09:47:46.813Z,100342.30
2023-04-09T09:48:50.150Z,100354.02
2023-04-09T09:49:54.044Z,100341.80
2023-04-09T09:50:57.814Z,100345.05
2023-04-09T09:52:03.967Z,100342.30
2023-04-09T09:53:07.778Z,100336.86
2023-04-09T09:54:12.331Z,100342.05
2023-04-09T09:55:17.478Z,100345.69
2023-04-09T09:56:24.152Z,100344.67
2023-04-09T09:57:29.996Z,100339.41
2023-04-09T09:58:35.841Z,100346.41
2023-04-09T09:59:57.542Z,100345.84
2023-04-09T10:01:02.285Z,100349.78
2023-04-09T10:02:07.957Z,100342.66
2023-04-09T10:03:15.195Z,100342.73
2023-04-09T10:04:20.100Z,100346.60
2023-04-09T10:05:25.323Z,100343.22
2023-04-09T10:06:27.823Z,100341.35
2023-04-09T10:07:32.588Z,100340.31
2023-04-09T10:08:37.516Z,100335.61
2023-04-09T10:09:43.605Z,100342.84
2023-04-09T10:10:47.997Z,100332.50
2023-04-09T10:11:50.304Z,100335.34
2023-04-09T10:12:52.729Z,100335.71
2023-04-09T10:14:00.202Z,100333.64
2023-04-09T10:15:05.630Z,100333.81
2023-04-09T10:16:08.923Z,100334.47
2023-04-09T10:17:12.232Z,100339.06
2023-04-09T10:18:15.213Z,100339.19
2023-04-09T10:19:18.133Z,100333.62
2023-04-09T10:20:42.626Z,100328.91
2023-04-09T10:22:03.788Z,100329.84
2023-04-09T10:23:10.384Z,100333.80
2023-04-09T10:24:13.419Z,100328.11
2023-04-09T10:25:17.199Z,100326.59
2023-04-09T10:26:21.325Z,100321.33
2023-04-09T10:27:28.472Z,100325.33
2023-04-09T10:28:31.712Z,100327.26
2023-04-09T10:29:33.902Z,100319.58
2023-04-09T10:30:37.199Z,100321.87
2023-04-09T10:31:55.244Z,100322.67
2023-04-09T10:33:28.498Z,100322.67
2023-04-09T10:34:37.357Z,100322.70
2023-04-09T10:35:39.796Z,100325.88
2023-04-09T10:36:44.540Z,100319.07
2023-04-09T10:37:50.645Z,100313.56
2023-04-09T10:38:54.033Z,100312.77
2023-04-09T10:39:57.195Z,100309.59
2023-04-09T10:41:01.779Z,100311.30
2023-04-09T10:42:10.921Z,100314.00
2023-04-09T10:43:14.933Z,100309.92
2023-04-09T10:45:42.034Z,100306.26
2023-04-09T10:46:45.420Z,100311.74
2023-04-09T10:49:21.905Z,100301.91
2023-04-09T10:50:26.391Z,100306.78
2023-04-09T10:51:30.698Z,100305.13
2023-04-09T10:52:35.060Z,100311.80
2023-04-09T10:53:38.346Z,100301.69
2023-04-09T10:54:45.655Z,100300.87
2023-04-09T10:55:52.911Z,100292.62
2023-04-09T10:57:17.304Z,100287.46
2023-04-09T10:58:21.394Z,100287.11
2023-04-09T10:59:23.689Z,100291.92
2023-04-09T11:00:27.076Z,100293.38
2023-04-09T11:01:30.333Z,100287.22
2023-04-09T11:02:42.537Z,100288.25
2023-04-09T11:03:48.751Z,100291.22
2023-04-09T11:05:04.824Z,100285.89
2023-04-09T11:06:10.355Z,100273.36
2023-04-09T11:07:15.452Z,100280.02
2023-04-09T11:08:17.992Z,100285.75
2023-04-09T11:09:20.829Z,100282.07
2023-04-09T11:10:24.148Z,100276.36
2023-04-09T11:11:27.651Z,100273.52
2023-04-09T11:12:33.063Z,100283.75
2023-04-09T11:13:36.658Z,100276.16
2023-04-09T11:14:39.005Z,100281.55
2023-04-09T11:15:42.065Z,100275.41
2023-04-09T11:16:50.666Z,100283.09
2023-04-09T11:17:54.240Z,100285.15
2023-04-09T11:18:56.903Z,100279.52
2023-04-09T11:19:59.168Z,100277.80
2023-04-09T11:21:03.812Z,100268.83
2023-04-09T11:22:07.553Z,100279.70
2023-04-09T11:23:12.566Z,100274.22
2023-04-09T11:24:16.007Z,100276.17
2023-04-09T11:25:26.231Z,100280.91
2023-04-09T11:26:36.016Z,100274.32
2023-04-09T11:27:38.691Z,100264.50
2023-04-09T11:28:43.419Z,100266.81
2023-04-09T11:29:45.972Z,100266.69
2023-04-09T11:30:50.502Z,100258.50
2023-04-09T11:31:52.888Z,100255.70
2023-04-09T11:32:55.718Z,100262.70
2023-04-09T11:33:58.149Z,100265.62
2023-04-09T11:35:01.608Z,100259.23
2023-04-09T11:36:07.804Z,100265.25
2023-04-09T11:37:16.396Z,100262.61
2023-04-09T11:38:18.580Z,100264.80
2023-04-09T11:39:22.007Z,100263.39
2023-04-09T11:40:28.054Z,100256.02
2023-04-09T11:41:38.167Z,100253.95
2023-04-09T11:42:40.577Z,100254.71
2023-04-09T11:43:42.924Z,100252.59
2023-04-09T11:44:46.666Z,100255.95
2023-04-09T11:45:50.409Z,100255.09
2023-04-09T11:46:53.806Z,100243.52
2023-04-09T11:47:56.700Z,100252.05
2023-04-09T11:49:00.882Z,100250.50
2023-04-09T11:50:05.489Z,100253.02
2023-04-09T11:51:09.270Z,100237.60
2023-04-09T11:52:11.828Z,100247.13
2023-04-09T11:53:21.354Z,100237.65
2023-04-09T11:54:23.743Z,100236.95
2023-04-09T11:55:27.728Z,100237.58
2023-04-09T11:56:30.817Z,100244.14
2023-04-09T11:57:46.608Z,100235.03
2023-04-09T11:58:49.211Z,100237.31
2023-04-09T11:59:52.652Z,100234.59
2023-04-09T12:00:58.508Z,100228.88
2023-04-09T12:02:02.233Z,100231.45
2023-04-09T12:03:05.483Z,100239.52
2023-04-09T12:04:09.068Z,100237.03
2023-04-09T12:05:15.446Z,100241.87
2023-04-09T12:06:24.258Z,100229.66
2023-04-09T12:07:31.729Z,100235.28
2023-04-09T12:08:36.752Z,100224.17
2023-04-09T12:09:49.500Z,100234.95
2023-04-09T12:10:53.647Z,100230.37
2023-04-09T12:11:57.953Z,100233.31
2023-04-09T12:13:11.447Z,100230.98
2023-04-09T12:14:15.923Z,100243.50
2023-04-09T12:15:22.149Z,100230.63
2023-04-09T12:16:24.827Z,100236.45
2023-04-09T12:17:27.223Z,100236.15
2023-04-09T12:18:30.768Z,100231.50
2023-04-09T12:19:35.949Z,100233.49
2023-04-09T12:20:43.612Z,100229.94
2023-04-09T12:21:53.365Z,100231.05
2023-04-09T12:22:56.368Z,100230.31
2023-04-09T12:23:58.650Z,100227.02
2023-04-09T12:25:00.790Z,100233.20
2023-04-09T12:26:05.653Z,100227.16